createdAt,value
2023-01-28T00:01:13.227Z,102713.97
2023-01-28T00:03:59.830Z,102724.03
2023-01-28T00:06:46.502Z,102724.69
2023-01-28T00:09:33.236Z,102722.81
2023-01-28T00:12:19.869Z,102721.06
2023-01-28T00:15:07.767Z,102707.97
2023-01-28T00:17:57.302Z,102713.97
2023-01-28T00:20:43.980Z,102720.94
2023-01-28T00:23:32.385Z,102714.31
2023-01-28T00:26:19.511Z,102717.16
2023-01-28T00:29:06.951Z,102716.66
2023-01-28T00:31:53.622Z,102720.25
2023-01-28T00:34:41.707Z,102722.81
2023-01-28T00:37:28.430Z,102717.06
2023-01-28T00:40:15.268Z,102710.28
2023-01-28T00:43:01.840Z,102714.59
2023-01-28T00:45:50.216Z,102711.50
2023-01-28T00:48:38.102Z,102713.00
2023-01-28T00:51:26.846Z,102710.88
2023-01-28T00:54:14.214Z,102704.19
2023-01-28T00:57:00.995Z,102709.03
2023-01-28T00:59:47.846Z,102705.69
2023-01-28T01:02:34.993Z,102716.03
2023-01-28T01:05:21.598Z,102714.50
2023-01-28T01:08:09.767Z,102717.88
2023-01-28T01:10:59.930Z,102718.63
2023-01-28T01:13:48.333Z,102725.66
2023-01-28T01:16:36.274Z,102719.03
2023-01-28T01:19:23.066Z,102712.13
2023-01-28T01:22:10.101Z,102713.91
2023-01-28T01:24:58.083Z,102720.47
2023-01-28T01:27:46.051Z,102715.84
2023-01-28T01:30:32.738Z,102714.16
2023-01-28T01:33:19.469Z,102715.03
2023-01-28T01:36:06.857Z,102717.88
2023-01-28T01:38:55.475Z,102713.91
2023-01-28T01:41:44.613Z,102703.47
2023-01-28T01:44:57.054Z,102694.09
2023-01-28T01:47:46.968Z,102694.66
2023-01-28T01:50:36.469Z,102697.63
2023-01-28T01:53:24.108Z,102697.81
2023-01-28T01:56:13.007Z,102699.13
2023-01-28T01:59:02.703Z,102689.31
2023-01-28T02:01:51.979Z,102691.72
2023-01-28T02:04:41.018Z,102693.47
2023-01-28T02:07:27.959Z,102694.88
2023-01-28T02:10:14.851Z,102699.13
2023-01-28T02:13:03.843Z,102703.44
2023-01-28T02:16:54.051Z,102696.22
2023-01-28T02:19:46.680Z,102694.03
2023-01-28T02:22:55.164Z,102683.50
2023-01-28T02:25:50.585Z,102683.41
2023-01-28T02:28:42.538Z,102696.03
2023-01-28T02:31:33.302Z,102677.38
2023-01-28T02:34:25.232Z,102687.66
2023-01-28T02:37:15.953Z,102685.00
2023-01-28T02:40:08.812Z,102678.28
2023-01-28T02:42:55.391Z,102679.75
2023-01-28T02:46:00.860Z,102680.56
2023-01-28T02:48:47.405Z,102668.25
2023-01-28T02:51:47.194Z,102664.19
2023-01-28T02:54:41.938Z,102665.25
2023-01-28T02:57:36.046Z,102656.88
2023-01-28T03:00:27.380Z,102654.66
2023-01-28T03:03:20.045Z,102655.88
2023-01-28T03:06:09.901Z,102657.91
2023-01-28T03:09:16.808Z,102660.03
2023-01-28T03:12:23.739Z,102653.88
2023-01-28T03:15:29.611Z,102657.22
2023-01-28T03:18:37.350Z,102660.75
2023-01-28T03:21:45.234Z,102653.78
2023-01-28T03:24:51.262Z,102658.75
2023-01-28T03:27:59.755Z,102659.00
2023-01-28T03:31:11.142Z,102657.16
2023-01-28T03:34:27.019Z,102654.88
2023-01-28T03:37:15.137Z,102656.78
2023-01-28T03:40:09.042Z,102665.00
2023-01-28T03:42:56.870Z,102658.38
2023-01-28T03:45:53.667Z,102661.63
2023-01-28T03:48:40.912Z,102658.72
2023-01-28T03:51:30.902Z,102656.63
2023-01-28T03:54:17.619Z,102658.63
2023-01-28T03:57:06.063Z,102665.63
2023-01-28T03:59:52.916Z,102665.88
2023-01-28T04:02:40.198Z,102666.81
2023-01-28T04:05:30.473Z,102663.75
2023-01-28T04:08:20.660Z,102670.56
2023-01-28T04:11:20.188Z,102663.63
2023-01-28T04:14:07.872Z,102662.56
2023-01-28T04:17:04.038Z,102669.78
2023-01-28T04:31:37.483Z,102649.44
2023-01-28T04:34:56.176Z,102662.00
2023-01-28T04:37:50.669Z,102658.78
2023-01-28T04:40:54.683Z,102658.31
2023-01-28T04:43:46.793Z,102656.75
2023-01-28T04:46:41.110Z,102657.28
2023-01-28T04:49:41.436Z,102651.16
2023-01-28T04:52:45.284Z,102659.31
2023-01-28T04:55:55.199Z,102665.63
2023-01-28T04:58:41.911Z,102658.53
2023-01-28T05:01:32.540Z,102665.25
2023-01-28T05:04:20.877Z,102663.00
2023-01-28T05:07:07.456Z,102662.81
2023-01-28T05:09:54.786Z,102663.88
2023-01-28T05:12:41.512Z,102660.44
2023-01-28T05:15:28.398Z,102657.53
2023-01-28T05:18:15.011Z,102651.47
2023-01-28T05:21:08.230Z,102655.25
2023-01-28T05:23:56.633Z,102663.09
2023-01-28T05:26:43.432Z,102669.28
2023-01-28T05:29:30.145Z,102671.09
2023-01-28T05:32:16.925Z,102659.66
2023-01-28T05:35:03.726Z,102659.00
2023-01-28T05:37:51.604Z,102661.84
2023-01-28T05:40:38.903Z,102658.56
2023-01-28T05:43:25.815Z,102645.84
2023-01-28T05:46:26.168Z,102641.91
2023-01-28T05:49:32.859Z,102642.94
2023-01-28T05:52:38.313Z,102639.03
2023-01-28T05:55:29.968Z,102630.81
2023-01-28T05:58:16.916Z,102617.16
2023-01-28T06:01:03.738Z,102626.31
2023-01-28T06:03:59.250Z,102623.06
2023-01-28T06:06:49.004Z,102633.69
2023-01-28T06:09:35.954Z,102627.16
2023-01-28T06:12:24.266Z,102619.56
2023-01-28T06:15:30.295Z,102621.78
2023-01-28T06:18:41.372Z,102618.69
2023-01-28T06:21:30.202Z,102622.50
2023-01-28T06:24:18.377Z,102623.69
2023-01-28T06:27:05.150Z,102621.31
2023-01-28T06:29:53.457Z,102624.06
2023-01-28T06:32:39.896Z,102614.44
2023-01-28T06:35:26.811Z,102617.34
2023-01-28T06:38:14.243Z,102613.09
2023-01-28T06:41:01.190Z,102621.59
2023-01-28T06:43:48.061Z,102625.09
2023-01-28T06:46:36.164Z,102620.16
2023-01-28T06:49:22.572Z,102619.91
2023-01-28T06:52:09.645Z,102621.59
2023-01-28T06:54:56.297Z,102630.06
2023-01-28T06:57:45.401Z,102629.66
2023-01-28T07:00:32.097Z,102633.25
2023-01-28T07:03:20.290Z,102633.19
2023-01-28T07:06:07.492Z,102641.59
2023-01-28T07:08:54.238Z,102644.34
2023-01-28T07:11:41.274Z,102638.63
2023-01-28T07:14:27.765Z,102639.72
2023-01-28T07:17:14.469Z,102642.94
2023-01-28T07:20:02.531Z,102634.72
2023-01-28T07:22:49.480Z,102639.13
2023-01-28T07:25:36.187Z,102643.34
2023-01-28T07:28:22.939Z,102646.72
2023-01-28T07:31:09.771Z,102648.31
2023-01-28T07:33:56.362Z,102637.56
2023-01-28T07:36:44.419Z,102638.63
2023-01-28T07:39:31.314Z,102647.19
2023-01-28T07:42:17.979Z,102637.75
2023-01-28T07:45:08.438Z,102636.88
2023-01-28T07:47:56.835Z,102641.34
2023-01-28T07:50:43.754Z,102647.59
2023-01-28T07:53:31.775Z,102649.34
2023-01-28T07:56:18.401Z,102648.03
2023-01-28T07:59:05.459Z,102642.59
2023-01-28T08:01:54.758Z,102643.88
2023-01-28T08:04:41.991Z,102656.59
2023-01-28T08:07:29.465Z,102658.63
2023-01-28T08:10:18.537Z,102660.84
2023-01-28T08:13:05.745Z,102662.06
2023-01-28T08:15:56.473Z,102672.13
2023-01-28T08:18:44.336Z,102666.25
2023-01-28T08:21:31.204Z,102663.84
2023-01-28T08:24:18.320Z,102674.19
2023-01-28T08:27:06.340Z,102681.84
2023-01-28T08:29:52.822Z,102681.56
2023-01-28T08:32:39.431Z,102677.44
2023-01-28T08:35:26.227Z,102675.50
2023-01-28T08:38:17.699Z,102683.09
2023-01-28T08:41:04.457Z,102678.44
2023-01-28T08:43:52.561Z,102680.56
2023-01-28T08:46:39.284Z,102691.31
2023-01-28T08:49:26.328Z,102703.09
2023-01-28T08:52:12.739Z,102701.97
2023-01-28T08:54:59.598Z,102710.25
2023-01-28T08:57:46.680Z,102717.69
2023-01-28T09:00:34.869Z,102720.72
2023-01-28T09:03:21.615Z,102731.66
2023-01-28T09:06:08.524Z,102730.59
2023-01-28T09:08:57.997Z,102728.53
2023-01-28T09:11:44.509Z,102732.59
2023-01-28T09:14:31.327Z,102731.50
2023-01-28T09:17:19.411Z,102735.75
2023-01-28T09:20:08.127Z,102747.00
2023-01-28T09:22:36.189Z,102748.91
2023-01-28T09:25:04.367Z,102762.09
2023-01-28T09:27:32.278Z,102758.44
2023-01-28T09:30:00.244Z,102776.56
2023-01-28T09:32:31.191Z,102766.22
2023-01-28T09:34:59.102Z,102775.63
2023-01-28T09:37:27.085Z,102775.50
2023-01-28T09:39:55.015Z,102767.84
2023-01-28T09:42:37.664Z,102763.59
2023-01-28T09:45:16.095Z,102772.16
2023-01-28T09:47:48.445Z,102770.16
2023-01-28T09:50:19.732Z,102774.41
2023-01-28T09:52:47.807Z,102762.38
2023-01-28T09:55:21.421Z,102763.47
2023-01-28T09:57:52.453Z,102761.00
2023-01-28T10:00:23.847Z,102766.50
2023-01-28T10:03:08.969Z,102766.50
2023-01-28T10:05:46.412Z,102770.66
2023-01-28T10:08:26.649Z,102754.22
2023-01-28T10:10:58.393Z,102751.59
2023-01-28T10:13:31.563Z,102751.41
2023-01-28T10:16:11.063Z,102739.81
2023-01-28T10:18:45.605Z,102731.13
2023-01-28T10:21:19.293Z,102736.91
2023-01-28T10:23:57.273Z,102732.69
2023-01-28T10:26:27.124Z,102731.94
2023-01-28T10:28:57.562Z,102729.41
2023-01-28T10:31:31.877Z,102729.56
2023-01-28T10:34:01.571Z,102718.88
2023-01-28T10:36:30.425Z,102718.34
2023-01-28T10:38:58.515Z,102718.19
2023-01-28T10:41:27.101Z,102715.69
2023-01-28T10:43:55.017Z,102711.16
2023-01-28T10:46:26.102Z,102707.44
2023-01-28T10:49:01.510Z,102700.69
2023-01-28T10:51:34.453Z,102699.88
2023-01-28T10:54:02.412Z,102700.91
2023-01-28T10:56:32.047Z,102713.81
2023-01-28T10:59:03.085Z,102704.06
2023-01-28T11:01:44.619Z,102696.00
2023-01-28T11:04:24.450Z,102681.47
2023-01-28T11:06:58.415Z,102672.41
2023-01-28T11:09:28.575Z,102672.47
2023-01-28T11:11:56.505Z,102656.72
2023-01-28T11:14:26.571Z,102643.59
2023-01-28T11:16:56.129Z,102628.16
2023-01-28T11:19:29.987Z,102611.94
2023-01-28T11:21:58.292Z,102632.00
2023-01-28T11:24:29.032Z,102635.50
2023-01-28T11:26:58.195Z,102628.22
2023-01-28T11:29:29.338Z,102612.66
2023-01-28T11:31:57.751Z,102606.88
2023-01-28T11:34:30.107Z,102607.88
2023-01-28T11:37:05.761Z,102612.84
2023-01-28T11:39:33.682Z,102597.53
2023-01-28T11:42:07.694Z,102597.00
2023-01-28T11:44:35.475Z,102565.91
2023-01-28T11:47:12.140Z,102565.78
2023-01-28T11:49:53.600Z,102561.81
2023-01-28T11:52:27.217Z,102562.19
2023-01-28T11:55:05.268Z,102548.50
2023-01-28T11:57:38.416Z,102554.31
2023-01-28T12:00:36.505Z,102556.13
2023-01-28T12:03:19.146Z,102561.00
2023-01-28T12:05:53.486Z,102568.34
2023-01-28T12:08:24.940Z,102558.31
2023-01-28T12:11:09.218Z,102571.56
2023-01-28T12:13:49.875Z,102566.16
2023-01-28T12:16:42.783Z,102580.59
2023-01-28T12:19:40.417Z,102561.16
2023-01-28T12:22:29.836Z,102574.41
2023-01-28T12:25:19.217Z,102568.47
2023-01-28T12:27:54.416Z,102565.00
2023-01-28T12:30:28.933Z,102549.56
2023-01-28T12:33:13.511Z,102553.75
2023-01-28T12:35:53.082Z,102527.63
2023-01-28T12:38:28.728Z,102535.56
2023-01-28T12:41:00.821Z,102534.31
2023-01-28T12:43:41.090Z,102543.44
2023-01-28T12:46:14.097Z,102532.63
2023-01-28T12:48:42.189Z,102549.16
2023-01-28T12:51:14.984Z,102544.19
2023-01-28T12:53:48.134Z,102548.63
2023-01-28T12:56:18.079Z,102543.19
2023-01-28T12:58:50.549Z,102534.47
2023-01-28T13:01:22.948Z,102527.78
2023-01-28T13:03:54.820Z,102514.00
2023-01-28T13:06:28.333Z,102509.06
2023-01-28T13:09:01.900Z,102518.09
2023-01-28T13:11:35.028Z,102522.72
2023-01-28T13:14:04.168Z,102513.13
2023-01-28T13:16:37.304Z,102508.63
2023-01-28T13:19:08.982Z,102518.00
2023-01-28T13:21:48.768Z,102526.34
2023-01-28T13:24:25.210Z,102529.28
2023-01-28T13:26:54.665Z,102511.44
2023-01-28T13:29:31.500Z,102523.13
2023-01-28T13:32:01.004Z,102514.31
2023-01-28T13:34:36.488Z,102517.41
2023-01-28T13:37:08.667Z,102535.50
2023-01-28T13:39:38.325Z,102535.19
2023-01-28T13:42:12.669Z,102529.69
2023-01-28T13:44:40.701Z,102533.28
2023-01-28T13:47:20.014Z,102543.28
2023-01-28T13:49:49.186Z,102539.41
2023-01-28T13:52:20.927Z,102541.78
2023-01-28T13:54:54.729Z,102539.63
2023-01-28T13:57:44.065Z,102530.22
2023-01-28T14:00:21.578Z,102532.50
2023-01-28T14:03:10.998Z,102537.53
2023-01-28T14:06:03.283Z,102547.47
2023-01-28T14:09:06.639Z,102550.00
2023-01-28T14:12:21.290Z,102553.97
2023-01-28T14:15:09.198Z,102543.00
2023-01-28T14:17:43.245Z,102541.13
2023-01-28T14:20:19.563Z,102529.91
2023-01-28T14:22:48.200Z,102525.16
2023-01-28T14:25:18.655Z,102506.16
2023-01-28T14:27:51.434Z,102501.09
2023-01-28T14:30:25.730Z,102500.44
2023-01-28T14:32:55.540Z,102517.16
2023-01-28T14:35:32.089Z,102520.94
2023-01-28T14:38:01.188Z,102524.22
2023-01-28T14:40:30.276Z,102525.44
2023-01-28T14:42:59.854Z,102527.94
2023-01-28T14:45:44.841Z,102522.38
2023-01-28T14:48:22.355Z,102531.84
2023-01-28T14:51:07.519Z,102546.22
2023-01-28T14:53:45.010Z,102547.69
2023-01-28T14:56:21.476Z,102544.72
2023-01-28T14:58:53.601Z,102546.63
2023-01-28T15:01:24.187Z,102553.78
2023-01-28T15:03:52.649Z,102562.56
2023-01-28T15:06:24.255Z,102545.69
2023-01-28T15:08:52.784Z,102551.53
2023-01-28T15:11:22.975Z,102549.63
2023-01-28T15:13:54.432Z,102547.28
2023-01-28T15:16:25.276Z,102548.88
2023-01-28T15:18:53.564Z,102536.31
2023-01-28T15:21:22.351Z,102526.13
2023-01-28T15:23:53.708Z,102526.44
2023-01-28T15:26:23.342Z,102532.91
2023-01-28T15:28:53.527Z,102541.47
2023-01-28T15:31:23.663Z,102554.13
2023-01-28T15:33:59.416Z,102543.81
2023-01-28T15:36:27.860Z,102527.31
2023-01-28T15:38:56.257Z,102518.56
2023-01-28T15:41:26.005Z,102509.25
2023-01-28T15:43:55.586Z,102519.50
2023-01-28T15:46:23.792Z,102509.31
2023-01-28T15:48:57.443Z,102511.91
2023-01-28T15:51:27.289Z,102511.41
2023-01-28T15:53:58.450Z,102512.00
2023-01-28T15:56:28.291Z,102514.78
2023-01-28T15:59:03.884Z,102495.50
2023-01-28T16:01:33.706Z,102499.47
2023-01-28T16:04:03.537Z,102501.09
2023-01-28T16:34:27.574Z,102508.09
2023-01-28T16:36:55.416Z,102505.88
2023-01-28T16:39:23.502Z,102505.41
2023-01-28T16:41:51.841Z,102500.91
2023-01-28T16:44:19.791Z,102492.59
2023-01-28T16:46:47.765Z,102494.28
2023-01-28T16:49:15.799Z,102486.59
2023-01-28T16:51:45.045Z,102485.78
2023-01-28T16:54:14.922Z,102481.28
2023-01-28T16:56:46.300Z,102476.50
2023-01-28T16:59:15.859Z,102485.47
2023-01-28T17:01:44.029Z,102480.81
2023-01-28T17:04:12.947Z,102476.97
2023-01-28T17:06:43.013Z,102488.97
2023-01-28T17:09:13.560Z,102476.22
2023-01-28T17:11:41.977Z,102475.69
2023-01-28T17:14:09.849Z,102479.13
2023-01-28T17:16:37.960Z,102486.16
2023-01-28T17:19:06.185Z,102480.09
2023-01-28T17:21:34.085Z,102484.38
2023-01-28T17:24:02.121Z,102481.19
2023-01-28T17:26:31.355Z,102489.94
2023-01-28T17:28:59.274Z,102483.84
2023-01-28T17:31:27.462Z,102482.16
2023-01-28T17:33:56.178Z,102493.84
2023-01-28T17:36:24.522Z,102480.69
2023-01-28T17:38:52.516Z,102478.81
2023-01-28T17:41:21.068Z,102475.94
2023-01-28T17:43:52.838Z,102472.31
2023-01-28T17:46:21.285Z,102460.25
2023-01-28T17:48:49.203Z,102451.41
2023-01-28T17:51:18.728Z,102456.50
2023-01-28T17:53:47.666Z,102461.63
2023-01-28T17:56:17.983Z,102462.44
2023-01-28T17:58:50.215Z,102465.31
2023-01-28T18:01:19.694Z,102462.81
2023-01-28T18:03:47.796Z,102462.56
2023-01-28T18:06:15.671Z,102461.94
2023-01-28T18:08:43.901Z,102451.59
2023-01-28T18:11:13.121Z,102469.19
2023-01-28T18:13:41.974Z,102457.63
2023-01-28T18:16:14.975Z,102446.56
2023-01-28T18:18:44.519Z,102453.78
2023-01-28T18:21:22.018Z,102443.63
2023-01-28T18:23:49.964Z,102441.06
2023-01-28T18:26:17.800Z,102427.41
2023-01-28T18:28:45.789Z,102437.56
2023-01-28T18:31:13.820Z,102426.84
2023-01-28T18:33:41.792Z,102430.31
2023-01-28T18:36:11.499Z,102421.41
2023-01-28T18:38:39.346Z,102414.09
2023-01-28T18:41:07.238Z,102404.66
2023-01-28T18:43:35.552Z,102407.31
2023-01-28T18:46:10.857Z,102400.75
2023-01-28T18:48:38.821Z,102392.75
2023-01-28T18:51:12.321Z,102381.78
2023-01-28T18:53:46.791Z,102385.38
2023-01-28T18:56:14.670Z,102378.50
2023-01-28T18:58:42.508Z,102374.44
2023-01-28T19:01:11.278Z,102381.38
2023-01-28T19:03:39.874Z,102365.06
2023-01-28T19:06:09.513Z,102365.94
2023-01-28T19:08:37.870Z,102366.91
2023-01-28T19:11:08.077Z,102371.41
2023-01-28T19:13:35.944Z,102371.53
2023-01-28T19:16:04.096Z,102373.97
2023-01-28T19:18:32.716Z,102382.75
2023-01-28T19:21:03.719Z,102382.75
2023-01-28T19:23:47.919Z,102361.22
2023-01-28T19:26:21.364Z,102360.47
2023-01-28T19:28:49.649Z,102367.13
2023-01-28T19:31:18.619Z,102367.78
2023-01-28T19:33:46.549Z,102356.75
2023-01-28T19:36:14.700Z,102347.66
2023-01-28T19:38:43.796Z,102357.13
2023-01-28T19:41:13.506Z,102344.81
2023-01-28T19:43:43.133Z,102341.25
2023-01-28T19:46:15.182Z,102343.81
2023-01-28T19:48:43.203Z,102325.88
2023-01-28T19:51:11.983Z,102325.88
2023-01-28T19:53:41.290Z,102330.13
2023-01-28T19:56:10.861Z,102326.81
2023-01-28T19:58:40.355Z,102319.09
2023-01-28T20:01:11.305Z,102306.84
2023-01-28T20:03:39.352Z,102305.31
2023-01-28T20:06:08.380Z,102298.63
2023-01-28T20:08:36.225Z,102300.38
2023-01-28T20:11:05.193Z,102292.09
2023-01-28T20:13:33.637Z,102294.09
2023-01-28T20:16:05.279Z,102295.59
2023-01-28T20:18:34.868Z,102286.00
2023-01-28T20:21:04.991Z,102269.56
2023-01-28T20:23:33.719Z,102274.03
2023-01-28T20:26:01.987Z,102264.66
2023-01-28T20:28:29.911Z,102267.28
2023-01-28T20:30:57.937Z,102252.72
2023-01-28T20:33:25.887Z,102262.16
2023-01-28T20:36:01.594Z,102263.84
2023-01-28T20:38:29.548Z,102251.63
2023-01-28T20:40:57.410Z,102250.28
2023-01-28T20:43:26.190Z,102253.53
2023-01-28T20:45:57.263Z,102245.16
2023-01-28T20:48:25.173Z,102246.03
2023-01-28T20:50:52.955Z,102259.88
2023-01-28T20:53:22.282Z,102249.56
2023-01-28T20:55:57.131Z,102244.66
2023-01-28T20:58:26.274Z,102234.50
2023-01-28T21:00:56.682Z,102232.81
2023-01-28T21:03:24.763Z,102237.91
2023-01-28T21:05:52.747Z,102239.78
2023-01-28T21:08:22.299Z,102245.53
2023-01-28T21:10:50.354Z,102242.19
2023-01-28T21:13:18.396Z,102256.69
2023-01-28T21:15:54.249Z,102244.16
2023-01-28T21:18:22.436Z,102245.75
2023-01-28T21:20:50.684Z,102244.88
2023-01-28T21:23:18.568Z,102237.78
2023-01-28T21:25:47.800Z,102235.28
2023-01-28T21:28:15.710Z,102230.09
2023-01-28T21:30:43.931Z,102226.44
2023-01-28T21:33:12.160Z,102231.56
2023-01-28T21:35:41.344Z,102231.56
2023-01-28T21:38:09.346Z,102235.06
2023-01-28T21:40:37.696Z,102233.31
2023-01-28T21:43:06.939Z,102229.06
2023-01-28T21:45:34.769Z,102219.53
2023-01-28T21:48:02.620Z,102224.53
2023-01-28T21:50:30.457Z,102223.00
2023-01-28T21:52:58.294Z,102224.00
2023-01-28T21:55:26.071Z,102225.84
2023-01-28T21:58:13.913Z,102223.22
2023-01-28T22:00:42.142Z,102221.47
2023-01-28T22:03:09.973Z,102218.06
2023-01-28T22:05:37.827Z,102214.88
2023-01-28T22:08:05.985Z,102210.41
2023-01-28T22:10:36.262Z,102212.44
2023-01-28T22:13:04.129Z,102213.91
2023-01-28T22:15:33.478Z,102211.56
2023-01-28T22:18:02.683Z,102208.94
2023-01-28T22:20:31.504Z,102208.19
2023-01-28T22:22:59.569Z,102197.75
2023-01-28T22:25:27.365Z,102199.88
2023-01-28T22:27:55.435Z,102199.25
2023-01-28T22:30:23.285Z,102190.63
2023-01-28T22:32:51.190Z,102201.22
2023-01-28T22:35:20.401Z,102192.66
2023-01-28T22:37:48.269Z,102199.69
2023-01-28T22:40:16.669Z,102178.38
2023-01-28T22:42:44.875Z,102177.69
2023-01-28T22:45:12.908Z,102171.88
2023-01-28T22:47:40.841Z,102171.88
2023-01-28T22:50:09.818Z,102168.56
2023-01-28T22:52:39.074Z,102173.78
2023-01-28T22:55:07.815Z,102165.41
2023-01-28T22:57:35.702Z,102155.06
2023-01-28T23:00:03.877Z,102155.81
2023-01-28T23:02:31.745Z,102140.50
2023-01-28T23:04:59.632Z,102146.59
2023-01-28T23:07:27.482Z,102139.81
2023-01-28T23:09:56.686Z,102147.47
2023-01-28T23:12:24.623Z,102133.75
2023-01-28T23:15:21.354Z,102132.03
2023-01-28T23:18:06.748Z,102144.00
2023-01-28T23:20:52.089Z,102142.06
2023-01-28T23:23:37.503Z,102139.53
2023-01-28T23:26:07.178Z,102147.25
2023-01-28T23:28:35.091Z,102137.25
2023-01-28T23:31:03.094Z,102144.91
2023-01-28T23:33:30.982Z,102159.25
2023-01-28T23:35:59.260Z,102152.31
2023-01-28T23:38:27.405Z,102152.91
2023-01-28T23:40:55.574Z,102137.53
2023-01-28T23:43:24.861Z,102159.06
2023-01-28T23:45:52.688Z,102155.50
2023-01-28T23:48:20.517Z,102153.44
2023-01-28T23:50:48.587Z,102155.06
2023-01-28T23:53:16.410Z,102154.28
2023-01-28T23:55:44.239Z,102152.72
2023-01-28T23:58:12.085Z,102161.34
